Time;durP1;ratioP1;P1;durP2;ratioP2;P2;SDS_P1;SDS_P2;PMS_P1;PMS_P2;Temp;Humidity;BMP_temperature;BMP_pressure;BME280_temperature;BME280_humidity;BME280_pressure;Samples;Min_cycle;Max_cycle;Signal;HPM_P1;HPM_P2
2022/10/01 00:01:27;;;;;;;5.75;3.90;;;;;;;;;;5045838;28;20412;-82
2022/10/01 00:03:55;;;;;;;6.75;3.88;;;;;;;;;;5042613;28;20041;-82
2022/10/01 00:06:23;;;;;;;7.05;3.78;;;;;;;;;;5044479;28;20065;-82
2022/10/01 00:08:51;;;;;;;7.13;3.70;;;;;;;;;;5028745;28;20517;-82
2022/10/01 00:11:25;;;;;;;8.60;4.10;;;;;;;;;;5046651;28;20041;-82
2022/10/01 00:13:53;;;;;;;8.23;3.80;;;;;;;;;;5044914;28;20127;-82
2022/10/01 00:16:22;;;;;;;7.20;4.00;;;;;;;;;;5046649;28;20037;-82
2022/10/01 00:18:52;;;;;;;6.10;3.60;;;;;;;;;;5051564;28;20072;-82
2022/10/01 00:21:45;;;;;;;5.78;3.60;;;;;;;;;;5028303;28;20048;-82
2022/10/01 00:25:04;;;;;;;7.38;3.40;;;;;;;;;;5046499;28;20090;-82
2022/10/01 00:27:32;;;;;;;5.90;3.65;;;;;;;;;;5030110;28;20060;-82
2022/10/01 00:30:00;;;;;;;6.32;3.60;;;;;;;;;;5044379;28;20060;-82
2022/10/01 00:32:31;;;;;;;6.07;3.72;;;;;;;;;;5029048;28;20041;-82
2022/10/01 00:34:59;;;;;;;7.57;3.63;;;;;;;;;;5028376;28;20075;-82
2022/10/01 00:37:26;;;;;;;5.28;3.38;;;;;;;;;;5044991;28;20982;-82
2022/10/01 00:39:54;;;;;;;5.50;3.45;;;;;;;;;;5045365;28;20037;-82
2022/10/01 00:42:25;;;;;;;6.95;3.40;;;;;;;;;;5025094;28;20083;-82
2022/10/01 00:44:52;;;;;;;4.88;3.25;;;;;;;;;;5027472;28;20068;-82
2022/10/01 00:47:32;;;;;;;6.38;3.35;;;;;;;;;;5043141;28;20033;-82
2022/10/01 00:50:05;;;;;;;6.30;3.10;;;;;;;;;;5043796;28;20094;-82
2022/10/01 00:52:38;;;;;;;7.53;3.10;;;;;;;;;;5025808;28;20456;-82
2022/10/01 00:55:12;;;;;;;5.60;3.70;;;;;;;;;;5026584;28;20124;-82
2022/10/01 00:57:42;;;;;;;5.75;3.33;;;;;;;;;;5044663;28;20114;-82
2022/10/01 01:00:12;;;;;;;5.85;3.25;;;;;;;;;;5029194;28;20047;-82
2022/10/01 01:03:10;;;;;;;6.60;3.65;;;;;;;;;;5045220;28;20477;-82
2022/10/01 01:05:42;;;;;;;7.07;3.30;;;;;;;;;;5027289;28;20045;-82
2022/10/01 01:08:14;;;;;;;5.95;3.50;;;;;;;;;;5046089;28;20124;-82
2022/10/01 01:10:47;;;;;;;5.32;3.38;;;;;;;;;;5029211;28;20404;-82
2022/10/01 01:13:27;;;;;;;5.15;3.15;;;;;;;;;;5025414;28;20119;-81
2022/10/01 01:16:05;;;;;;;5.47;3.25;;;;;;;;;;5042593;28;20041;-82
2022/10/01 01:19:01;;;;;;;5.15;2.90;;;;;;;;;;5045092;28;20038;-82
2022/10/01 01:21:41;;;;;;;7.57;3.33;;;;;;;;;;5046304;28;20045;-82
2022/10/01 01:24:41;;;;;;;7.93;3.55;;;;;;;;;;5044698;28;20041;-81
2022/10/01 01:27:39;;;;;;;7.10;3.83;;;;;;;;;;5044675;28;20083;-82
2022/10/01 01:30:17;;;;;;;5.20;3.20;;;;;;;;;;5043868;28;20041;-82
2022/10/01 01:33:11;;;;;;;5.50;3.20;;;;;;;;;;5025949;28;20029;-82
2022/10/01 01:35:48;;;;;;;7.53;3.20;;;;;;;;;;5042879;28;20103;-82
2022/10/01 01:38:26;;;;;;;7.18;3.45;;;;;;;;;;5041971;28;20049;-82
2022/10/01 01:41:48;;;;;;;7.30;3.30;;;;;;;;;;5030883;28;20033;-82
2022/10/01 01:44:21;;;;;;;5.05;2.88;;;;;;;;;;5044316;28;20044;-82
2022/10/01 01:46:57;;;;;;;6.30;2.97;;;;;;;;;;5040706;28;20045;-82
2022/10/01 01:49:30;;;;;;;5.43;3.15;;;;;;;;;;5046714;28;20043;-82
2022/10/01 01:52:13;;;;;;;5.85;3.53;;;;;;;;;;5045233;28;20090;-82
2022/10/01 01:54:44;;;;;;;6.70;3.20;;;;;;;;;;5046010;28;20466;-82
2022/10/01 01:57:12;;;;;;;6.93;3.50;;;;;;;;;;5041663;28;20037;-82
2022/10/01 02:00:07;;;;;;;4.88;3.00;;;;;;;;;;5010556;28;20386;-82
2022/10/01 02:03:00;;;;;;;6.00;3.08;;;;;;;;;;5047101;28;20170;-82
2022/10/01 02:05:36;;;;;;;4.47;3.13;;;;;;;;;;5046922;28;20041;-82
2022/10/01 02:08:22;;;;;;;7.25;2.83;;;;;;;;;;5045820;28;20489;-83
2022/10/01 02:10:55;;;;;;;7.32;3.35;;;;;;;;;;5031801;28;20470;-82
2022/10/01 02:13:28;;;;;;;7.25;2.92;;;;;;;;;;5030950;28;20496;-82
2022/10/01 02:16:42;;;;;;;6.00;2.72;;;;;;;;;;5048328;28;20029;-83
2022/10/01 02:19:20;;;;;;;8.02;3.30;;;;;;;;;;5015207;28;20043;-83
2022/10/01 02:22:12;;;;;;;4.90;2.92;;;;;;;;;;5045421;28;20037;-82
2022/10/01 02:25:05;;;;;;;4.70;3.10;;;;;;;;;;5031833;28;20041;-83
2022/10/01 02:27:49;;;;;;;6.13;2.85;;;;;;;;;;5047379;28;20036;-83
2022/10/01 02:30:18;;;;;;;4.85;2.88;;;;;;;;;;5031336;28;20041;-82
2022/10/01 02:32:51;;;;;;;4.25;2.60;;;;;;;;;;5031985;28;20037;-83
2022/10/01 02:35:21;;;;;;;7.03;2.90;;;;;;;;;;5047638;28;20040;-82
2022/10/01 02:37:52;;;;;;;5.78;2.92;;;;;;;;;;5029411;28;20094;-83
2022/10/01 02:40:25;;;;;;;4.90;3.00;;;;;;;;;;5030066;28;20459;-82
2022/10/01 02:42:55;;;;;;;5.13;2.95;;;;;;;;;;5048678;28;20045;-83
2022/10/01 02:45:31;;;;;;;5.82;3.03;;;;;;;;;;5030669;28;20052;-82
2022/10/01 02:48:12;;;;;;;4.75;2.70;;;;;;;;;;5029967;28;20045;-83
2022/10/01 02:50:48;;;;;;;4.68;2.83;;;;;;;;;;5049315;28;20045;-83
2022/10/01 02:53:32;;;;;;;4.15;2.58;;;;;;;;;;5027906;28;20040;-83
2022/10/01 02:56:02;;;;;;;5.20;2.67;;;;;;;;;;5045040;28;20040;-83
2022/10/01 02:58:30;;;;;;;4.80;3.00;;;;;;;;;;5045522;28;20128;-83
2022/10/01 03:00:57;;;;;;;4.72;2.85;;;;;;;;;;5011997;28;20041;-83
2022/10/01 03:03:26;;;;;;;6.18;2.88;;;;;;;;;;5029897;28;20907;-83
2022/10/01 03:06:18;;;;;;;5.60;2.47;;;;;;;;;;5030022;28;20044;-82
2022/10/01 03:08:45;;;;;;;5.70;2.90;;;;;;;;;;5013466;28;20389;-82
2022/10/01 03:11:24;;;;;;;5.57;2.83;;;;;;;;;;5047239;28;21763;-82
2022/10/01 03:17:11;;;;;;;5.32;2.83;;;;;;;;;;5044601;28;20033;-82
2022/10/01 03:19:40;;;;;;;5.47;2.85;;;;;;;;;;5023420;28;20128;-82
2022/10/01 03:22:12;;;;;;;6.47;2.58;;;;;;;;;;5045657;28;20037;-83
2022/10/01 03:24:39;;;;;;;4.95;2.95;;;;;;;;;;5047356;28;20033;-82
2022/10/01 03:27:08;;;;;;;8.23;2.97;;;;;;;;;;5045833;28;20041;-83
2022/10/01 03:29:35;;;;;;;4.65;2.42;;;;;;;;;;5046113;28;20606;-83
2022/10/01 03:32:08;;;;;;;7.65;2.55;;;;;;;;;;5044924;28;20067;-83
2022/10/01 03:34:36;;;;;;;4.88;2.63;;;;;;;;;;5047780;28;20037;-83
2022/10/01 03:37:04;;;;;;;5.63;2.58;;;;;;;;;;5045568;28;20503;-82
2022/10/01 03:39:32;;;;;;;5.07;3.00;;;;;;;;;;5047492;28;20045;-81
2022/10/01 03:42:24;;;;;;;4.93;2.53;;;;;;;;;;5044711;28;20033;-83
2022/10/01 03:45:21;;;;;;;4.53;2.50;;;;;;;;;;5026080;28;20078;-83
2022/10/01 03:47:51;;;;;;;6.15;2.78;;;;;;;;;;5047641;28;20052;-82
2022/10/01 03:50:20;;;;;;;4.60;2.88;;;;;;;;;;5049353;28;20033;-83
2022/10/01 03:52:49;;;;;;;7.88;2.70;;;;;;;;;;5049035;28;20062;-83
2022/10/01 03:55:40;;;;;;;6.00;2.60;;;;;;;;;;5044859;28;20047;-82
2022/10/01 03:58:08;;;;;;;5.13;2.40;;;;;;;;;;5025447;28;20068;-83
2022/10/01 04:00:35;;;;;;;4.68;2.50;;;;;;;;;;5048414;28;20120;-83
2022/10/01 04:03:05;;;;;;;4.85;2.70;;;;;;;;;;5046470;28;20134;-83
2022/10/01 04:05:42;;;;;;;4.80;2.50;;;;;;;;;;5045803;28;20435;-82
2022/10/01 04:08:37;;;;;;;4.75;2.40;;;;;;;;;;5027729;28;20127;-83
2022/10/01 04:11:29;;;;;;;8.70;2.90;;;;;;;;;;5029125;28;20087;-82
2022/10/01 04:13:58;;;;;;;4.28;2.70;;;;;;;;;;5043577;28;20167;-83
2022/10/01 04:16:51;;;;;;;5.35;2.25;;;;;;;;;;5034408;28;20033;-83
2022/10/01 04:19:23;;;;;;;5.25;2.60;;;;;;;;;;5015100;28;20029;-82
2022/10/01 04:21:51;;;;;;;3.90;2.47;;;;;;;;;;5045140;28;20088;-82
2022/10/01 04:24:24;;;;;;;6.97;2.38;;;;;;;;;;5029558;28;20576;-82
2022/10/01 04:26:51;;;;;;;4.50;2.60;;;;;;;;;;5044709;28;20044;-82
2022/10/01 04:29:43;;;;;;;5.28;2.35;;;;;;;;;;5028105;28;20511;-83
2022/10/01 04:32:20;;;;;;;6.78;2.67;;;;;;;;;;5044895;28;20041;-82
2022/10/01 04:34:51;;;;;;;8.68;2.92;;;;;;;;;;5012451;28;20060;-83
2022/10/01 04:37:20;;;;;;;4.90;2.58;;;;;;;;;;5025933;28;20440;-82
2022/10/01 04:39:48;;;;;;;5.10;2.90;;;;;;;;;;5029293;28;20089;-83
2022/10/01 04:42:16;;;;;;;4.03;2.40;;;;;;;;;;5046934;28;20128;-82
2022/10/01 04:44:43;;;;;;;4.28;2.33;;;;;;;;;;5045463;28;20496;-82
2022/10/01 04:47:12;;;;;;;5.05;3.08;;;;;;;;;;5046462;28;20073;-82
2022/10/01 04:49:39;;;;;;;4.25;2.33;;;;;;;;;;5045617;28;20037;-82
2022/10/01 04:52:07;;;;;;;5.53;2.70;;;;;;;;;;5046982;28;20120;-82
2022/10/01 04:54:39;;;;;;;4.35;2.88;;;;;;;;;;5028650;28;20094;-83
2022/10/01 04:57:12;;;;;;;5.35;3.03;;;;;;;;;;5044405;28;20086;-82
2022/10/01 04:59:40;;;;;;;5.10;2.50;;;;;;;;;;5042164;28;20041;-82
2022/10/01 05:02:08;;;;;;;5.25;3.00;;;;;;;;;;5044697;28;20039;-82
2022/10/01 05:04:35;;;;;;;5.93;3.03;;;;;;;;;;5045333;28;20047;-83
2022/10/01 05:07:04;;;;;;;7.30;2.80;;;;;;;;;;5027957;28;20048;-82
2022/10/01 05:09:35;;;;;;;7.35;2.85;;;;;;;;;;5045365;28;20045;-83
2022/10/01 05:12:04;;;;;;;6.50;3.03;;;;;;;;;;5030218;28;20128;-82
2022/10/01 05:14:31;;;;;;;5.10;2.85;;;;;;;;;;5041331;28;20040;-83
2022/10/01 05:16:59;;;;;;;6.70;2.53;;;;;;;;;;5027198;28;20432;-82
2022/10/01 05:19:28;;;;;;;4.82;2.80;;;;;;;;;;5048028;28;20064;-83
2022/10/01 05:22:06;;;;;;;4.20;2.70;;;;;;;;;;5046226;28;20106;-82
2022/10/01 05:24:33;;;;;;;7.05;2.88;;;;;;;;;;5027700;28;20037;-82
2022/10/01 05:30:22;;;;;;;6.57;2.90;;;;;;;;;;5043059;28;20091;-82
2022/10/01 05:32:55;;;;;;;7.75;2.70;;;;;;;;;;5012358;28;20076;-83
2022/10/01 05:35:47;;;;;;;4.72;2.97;;;;;;;;;;5040389;28;20025;-83
2022/10/01 05:38:15;;;;;;;5.10;2.83;;;;;;;;;;5012067;28;20099;-83
2022/10/01 05:41:09;;;;;;;5.28;2.83;;;;;;;;;;5043681;28;20064;-83
2022/10/01 05:43:37;;;;;;;6.78;2.63;;;;;;;;;;5046621;28;20096;-83
2022/10/01 05:46:06;;;;;;;4.55;2.72;;;;;;;;;;5028361;28;20087;-83
2022/10/01 05:49:05;;;;;;;5.18;2.80;;;;;;;;;;5045733;28;20595;-83
2022/10/01 05:51:38;;;;;;;6.97;2.95;;;;;;;;;;5021992;28;20041;-83
2022/10/01 05:54:06;;;;;;;6.63;3.13;;;;;;;;;;5045831;28;20124;-83
2022/10/01 05:56:33;;;;;;;5.47;2.80;;;;;;;;;;5047057;28;20060;-83
2022/10/01 05:59:02;;;;;;;5.53;2.80;;;;;;;;;;5045829;28;20039;-83
2022/10/01 06:01:35;;;;;;;8.35;3.00;;;;;;;;;;5045178;28;20386;-83
2022/10/01 06:04:04;;;;;;;5.22;3.08;;;;;;;;;;5046828;28;20554;-83
2022/10/01 06:06:31;;;;;;;5.22;2.50;;;;;;;;;;5045110;28;20064;-83
2022/10/01 06:08:59;;;;;;;4.38;2.70;;;;;;;;;;5043301;28;20033;-83
2022/10/01 06:11:35;;;;;;;5.60;3.00;;;;;;;;;;5026933;28;20128;-83
2022/10/01 06:14:05;;;;;;;4.65;2.92;;;;;;;;;;5043895;28;20049;-83
2022/10/01 06:16:37;;;;;;;5.13;2.90;;;;;;;;;;5041352;28;20037;-83
2022/10/01 06:19:06;;;;;;;5.40;2.78;;;;;;;;;;5045474;28;20041;-82
2022/10/01 06:21:34;;;;;;;5.95;3.00;;;;;;;;;;5040914;28;20048;-83
2022/10/01 06:24:08;;;;;;;5.90;3.10;;;;;;;;;;5045286;28;20087;-83
2022/10/01 06:26:40;;;;;;;8.55;3.13;;;;;;;;;;5043625;28;20501;-82
2022/10/01 06:29:33;;;;;;;4.65;3.03;;;;;;;;;;5029878;28;20041;-83
2022/10/01 06:32:25;;;;;;;7.88;2.95;;;;;;;;;;5030291;28;20578;-82
2022/10/01 06:35:21;;;;;;;16.48;3.45;;;;;;;;;;5027287;28;20041;-83
2022/10/01 06:38:16;;;;;;;4.57;2.85;;;;;;;;;;5026744;28;20043;-83
2022/10/01 06:41:10;;;;;;;6.13;3.58;;;;;;;;;;5045231;28;20025;-83
2022/10/01 06:43:38;;;;;;;6.55;3.30;;;;;;;;;;5044312;28;20049;-83
2022/10/01 06:46:06;;;;;;;5.68;3.05;;;;;;;;;;5041538;28;20036;-83
2022/10/01 06:48:35;;;;;;;4.85;2.92;;;;;;;;;;5045942;28;21927;-83
2022/10/01 06:54:17;;;;;;;5.15;3.00;;;;;;;;;;5045784;28;20033;-83
2022/10/01 06:56:44;;;;;;;6.63;3.60;;;;;;;;;;5047896;28;20064;-83
2022/10/01 06:59:11;;;;;;;6.20;2.92;;;;;;;;;;5029244;28;20068;-82
2022/10/01 07:01:39;;;;;;;5.03;2.80;;;;;;;;;;5028399;28;20128;-83
2022/10/01 07:04:07;;;;;;;4.97;2.70;;;;;;;;;;5029472;28;20472;-82
2022/10/01 07:06:40;;;;;;;6.25;3.08;;;;;;;;;;5048286;28;20048;-83
2022/10/01 07:09:07;;;;;;;6.30;3.00;;;;;;;;;;5029362;28;20045;-83
2022/10/01 07:11:40;;;;;;;4.88;2.90;;;;;;;;;;5030139;28;20437;-82
2022/10/01 07:14:08;;;;;;;8.30;2.60;;;;;;;;;;5027161;28;20075;-83
2022/10/01 07:16:39;;;;;;;5.38;3.08;;;;;;;;;;5011894;28;20046;-81
2022/10/01 07:19:06;;;;;;;6.22;2.92;;;;;;;;;;5047345;28;20045;-85
2022/10/01 07:21:33;;;;;;;5.40;2.70;;;;;;;;;;5046380;28;20052;-83
2022/10/01 07:24:26;;;;;;;5.05;3.05;;;;;;;;;;5045242;28;20036;-83
2022/10/01 07:26:57;;;;;;;6.22;3.38;;;;;;;;;;5041791;28;20512;-83
2022/10/01 07:29:57;;;;;;;5.47;2.85;;;;;;;;;;5029028;28;20037;-82
2022/10/01 07:32:30;;;;;;;8.38;3.20;;;;;;;;;;5011263;28;20506;-82
2022/10/01 07:35:22;;;;;;;4.93;2.88;;;;;;;;;;5043683;28;20119;-83
2022/10/01 07:37:50;;;;;;;6.57;3.10;;;;;;;;;;5045185;28;20505;-83
2022/10/01 07:40:18;;;;;;;10.65;3.15;;;;;;;;;;5022255;28;20124;-83
2022/10/01 07:42:54;;;;;;;6.28;2.65;;;;;;;;;;5047037;28;20064;-82
2022/10/01 07:45:23;;;;;;;6.00;3.10;;;;;;;;;;5009269;28;20791;-82
2022/10/01 07:48:00;;;;;;;5.25;2.78;;;;;;;;;;5029601;28;20551;-81
2022/10/01 07:50:53;;;;;;;4.55;2.85;;;;;;;;;;5012424;28;20044;-81
2022/10/01 07:53:22;;;;;;;5.57;2.70;;;;;;;;;;5045113;28;20572;-81
2022/10/01 07:55:53;;;;;;;5.22;2.67;;;;;;;;;;5029282;28;20033;-81
2022/10/01 07:58:25;;;;;;;4.93;2.67;;;;;;;;;;5046975;28;20052;-81
2022/10/01 08:00:57;;;;;;;4.63;2.60;;;;;;;;;;5029188;28;20044;-81
2022/10/01 08:03:29;;;;;;;4.40;2.60;;;;;;;;;;5042662;28;20658;-81
2022/10/01 08:05:58;;;;;;;5.55;2.92;;;;;;;;;;5042866;28;20119;-81
2022/10/01 08:08:25;;;;;;;5.22;2.85;;;;;;;;;;5045406;28;20037;-81
2022/10/01 08:10:53;;;;;;;6.75;3.10;;;;;;;;;;5023322;28;20033;-81
2022/10/01 08:13:25;;;;;;;4.90;2.80;;;;;;;;;;5025400;28;20045;-81
2022/10/01 08:15:54;;;;;;;8.45;2.80;;;;;;;;;;5025795;28;20673;-81
2022/10/01 08:18:22;;;;;;;5.97;2.90;;;;;;;;;;5049772;28;20038;-81
2022/10/01 08:20:50;;;;;;;5.25;2.50;;;;;;;;;;5047565;28;20543;-81
2022/10/01 08:23:18;;;;;;;5.72;2.80;;;;;;;;;;5048042;28;20090;-81
2022/10/01 08:25:46;;;;;;;4.93;2.85;;;;;;;;;;5025161;28;20043;-81
2022/10/01 08:28:15;;;;;;;5.63;2.90;;;;;;;;;;5048989;28;20589;-81
2022/10/01 08:30:48;;;;;;;5.07;2.58;;;;;;;;;;5043147;28;20043;-81
2022/10/01 08:33:15;;;;;;;7.43;3.13;;;;;;;;;;5046869;28;20074;-81
2022/10/01 08:35:43;;;;;;;5.57;2.67;;;;;;;;;;5030063;28;20051;-81
2022/10/01 08:38:13;;;;;;;4.22;2.60;;;;;;;;;;5030257;28;20037;-81
2022/10/01 08:40:48;;;;;;;4.38;2.28;;;;;;;;;;5035373;28;20036;-81
2022/10/01 08:43:37;;;;;;;3.50;2.22;;;;;;;;;;5035353;28;20033;-82
2022/10/01 08:46:15;;;;;;;3.65;1.90;;;;;;;;;;5032732;28;20320;-81
2022/10/01 08:52:25;;;;;;;3.60;2.03;;;;;;;;;;5030286;28;20068;-81
2022/10/01 08:55:03;;;;;;;5.00;2.75;;;;;;;;;;5040514;28;20056;-81
2022/10/01 08:57:37;;;;;;;3.22;2.00;;;;;;;;;;5019879;28;20099;-82
2022/10/01 09:00:13;;;;;;;4.05;2.10;;;;;;;;;;5016356;28;20139;-81
2022/10/01 09:02:46;;;;;;;3.70;2.00;;;;;;;;;;5014690;28;20045;-81
2022/10/01 09:05:53;;;;;;;3.50;1.92;;;;;;;;;;5031190;28;20041;-82
2022/10/01 09:08:49;;;;;;;3.15;2.00;;;;;;;;;;4957053;28;20064;-81
2022/10/01 09:11:30;;;;;;;4.82;1.92;;;;;;;;;;4935222;28;20055;-82
2022/10/01 09:14:45;;;;;;;3.47;1.83;;;;;;;;;;4935890;28;20047;-81
2022/10/01 09:17:36;;;;;;;3.80;2.10;;;;;;;;;;4933740;28;20080;-81
2022/10/01 09:20:33;;;;;;;4.30;2.30;;;;;;;;;;4935910;28;20043;-82
2022/10/01 09:23:15;;;;;;;5.00;1.88;;;;;;;;;;4918506;28;20047;-81
2022/10/01 09:25:49;;;;;;;3.83;1.90;;;;;;;;;;4943197;28;20235;-81
2022/10/01 09:28:49;;;;;;;3.30;1.85;;;;;;;;;;4930450;28;20682;-83
2022/10/01 09:31:24;;;;;;;3.10;1.83;;;;;;;;;;4933036;28;20032;-82
2022/10/01 09:34:07;;;;;;;4.00;2.10;;;;;;;;;;4932900;28;20058;-83
2022/10/01 09:37:08;;;;;;;4.53;2.10;;;;;;;;;;4933094;28;20142;-82
2022/10/01 09:40:07;;;;;;;3.65;2.08;;;;;;;;;;4868222;29;20422;-82
2022/10/01 09:42:34;;;;;;;3.58;2.40;;;;;;;;;;4879230;29;20145;-82
2022/10/01 09:45:02;;;;;;;5.05;2.42;;;;;;;;;;4891653;29;20080;-82
2022/10/01 09:47:31;;;;;;;4.32;2.50;;;;;;;;;;4912765;28;20637;-82
2022/10/01 09:50:05;;;;;;;4.30;2.30;;;;;;;;;;4936076;28;20207;-83
2022/10/01 09:59:01;;;;;;;4.15;2.83;;;;;;;;;;4921079;28;20031;-82
2022/10/01 10:01:50;;;;;;;6.95;2.88;;;;;;;;;;4935060;28;20043;-82
2022/10/01 10:04:25;;;;;;;4.50;2.90;;;;;;;;;;4934200;28;20060;-82
2022/10/01 10:07:18;;;;;;;4.90;2.97;;;;;;;;;;4937504;28;20047;-82
2022/10/01 10:09:45;;;;;;;6.63;3.60;;;;;;;;;;4921882;28;20055;-82
2022/10/01 10:12:34;;;;;;;5.63;3.53;;;;;;;;;;4936578;28;20047;-82
2022/10/01 10:15:12;;;;;;;5.30;3.80;;;;;;;;;;4941545;28;20051;-82
2022/10/01 10:17:48;;;;;;;6.43;3.90;;;;;;;;;;5018997;28;20139;-82
2022/10/01 10:20:40;;;;;;;8.00;4.15;;;;;;;;;;5015849;28;20488;-82
2022/10/01 10:23:14;;;;;;;8.63;4.32;;;;;;;;;;5038084;28;20037;-82
2022/10/01 10:25:42;;;;;;;6.25;4.25;;;;;;;;;;5023648;28;20321;-82
2022/10/01 10:28:19;;;;;;;10.13;5.05;;;;;;;;;;5039309;28;20033;-82
2022/10/01 10:30:53;;;;;;;6.95;4.95;;;;;;;;;;5036286;28;20033;-82
2022/10/01 10:33:25;;;;;;;7.70;5.32;;;;;;;;;;5039770;28;20048;-83
2022/10/01 10:35:58;;;;;;;7.35;5.28;;;;;;;;;;5043036;28;20052;-82
2022/10/01 10:38:30;;;;;;;7.35;5.03;;;;;;;;;;5037801;28;20048;-82
2022/10/01 10:41:27;;;;;;;9.85;5.63;;;;;;;;;;5040634;28;20183;-83
2022/10/01 10:44:05;;;;;;;7.82;5.30;;;;;;;;;;5031346;28;20531;-82
2022/10/01 10:47:18;;;;;;;11.10;5.18;;;;;;;;;;5046468;28;20041;-82
2022/10/01 10:49:49;;;;;;;10.73;5.63;;;;;;;;;;5030193;28;20588;-83
2022/10/01 10:52:28;;;;;;;8.65;5.47;;;;;;;;;;5047878;28;20449;-83
2022/10/01 10:55:29;;;;;;;8.90;5.72;;;;;;;;;;5031982;28;20017;-82
2022/10/01 10:58:14;;;;;;;11.48;5.95;;;;;;;;;;5031875;28;20037;-83
2022/10/01 11:00:49;;;;;;;10.70;5.32;;;;;;;;;;5048444;28;20464;-82
2022/10/01 11:04:23;;;;;;;8.15;5.25;;;;;;;;;;5047488;28;20037;-82
2022/10/01 11:07:01;;;;;;;9.45;5.55;;;;;;;;;;5031856;28;20041;-83
2022/10/01 11:09:43;;;;;;;12.10;6.25;;;;;;;;;;5049144;28;20099;-82
2022/10/01 11:12:44;;;;;;;9.13;6.13;;;;;;;;;;5032490;28;20029;-82
2022/10/01 11:15:32;;;;;;;8.45;5.20;;;;;;;;;;5047615;28;20175;-82
2022/10/01 11:18:26;;;;;;;9.32;5.90;;;;;;;;;;5048869;28;20137;-82
2022/10/01 11:21:22;;;;;;;10.98;5.82;;;;;;;;;;5025036;28;20111;-83
2022/10/01 11:24:13;;;;;;;10.13;5.80;;;;;;;;;;5047618;28;20037;-83
2022/10/01 11:26:54;;;;;;;11.25;6.13;;;;;;;;;;5047946;28;20120;-83
2022/10/01 11:29:47;;;;;;;11.85;5.82;;;;;;;;;;5026640;28;20037;-83
2022/10/01 11:32:28;;;;;;;10.23;5.47;;;;;;;;;;5048382;28;20040;-83
2022/10/01 11:35:24;;;;;;;14.82;6.18;;;;;;;;;;5047095;28;20103;-83
2022/10/01 11:38:52;;;;;;;13.32;5.40;;;;;;;;;;5045624;28;20052;-83
2022/10/01 11:41:26;;;;;;;10.05;5.35;;;;;;;;;;5029135;28;20044;-83
2022/10/01 11:44:27;;;;;;;8.82;5.05;;;;;;;;;;5024565;28;20056;-83
2022/10/01 11:47:30;;;;;;;11.68;4.88;;;;;;;;;;5027979;28;20281;-83
2022/10/01 11:50:40;;;;;;;9.10;4.75;;;;;;;;;;5014309;28;20559;-83
2022/10/01 11:53:16;;;;;;;6.65;4.22;;;;;;;;;;5013274;28;20106;-83
2022/10/01 11:59:07;;;;;;;10.80;5.00;;;;;;;;;;5055113;28;20052;-83
2022/10/01 12:01:48;;;;;;;11.90;4.00;;;;;;;;;;5007900;28;20040;-83
2022/10/01 12:04:37;;;;;;;13.05;3.58;;;;;;;;;;5047561;28;21044;-82
2022/10/01 12:07:25;;;;;;;6.40;3.25;;;;;;;;;;5030760;28;20044;-83
2022/10/01 12:10:28;;;;;;;16.33;3.47;;;;;;;;;;5047417;28;20044;-83
2022/10/01 12:13:16;;;;;;;8.40;3.05;;;;;;;;;;5048873;28;20044;-83
2022/10/01 12:16:07;;;;;;;8.88;3.03;;;;;;;;;;5001372;28;20052;-83
2022/10/01 12:19:11;;;;;;;5.32;2.92;;;;;;;;;;5029327;28;20125;-83
2022/10/01 12:21:44;;;;;;;8.65;3.13;;;;;;;;;;5030931;28;20041;-83
2022/10/01 12:24:20;;;;;;;12.82;3.28;;;;;;;;;;5024071;28;20037;-83
2022/10/01 12:27:23;;;;;;;6.25;2.88;;;;;;;;;;5024730;28;20095;-83
2022/10/01 12:30:05;;;;;;;5.82;2.80;;;;;;;;;;5047857;28;20041;-83
2022/10/01 12:33:19;;;;;;;5.20;2.00;;;;;;;;;;5044342;28;20025;-83
2022/10/01 12:36:24;;;;;;;8.70;2.35;;;;;;;;;;5029904;28;20051;-83
2022/10/01 12:39:33;;;;;;;7.70;2.15;;;;;;;;;;5031385;28;20143;-83
2022/10/01 12:42:30;;;;;;;11.93;2.42;;;;;;;;;;5029438;28;20037;-83
2022/10/01 12:45:23;;;;;;;5.22;1.70;;;;;;;;;;5023365;28;20060;-83
2022/10/01 12:48:17;;;;;;;4.20;1.70;;;;;;;;;;5027940;28;20463;-83
2022/10/01 12:50:45;;;;;;;8.73;1.83;;;;;;;;;;5007500;28;20124;-83
2022/10/01 12:53:22;;;;;;;9.80;2.30;;;;;;;;;;5029440;28;20652;-83
2022/10/01 12:56:36;;;;;;;7.18;1.75;;;;;;;;;;5027761;28;20040;-83
2022/10/01 12:59:07;;;;;;;7.47;1.55;;;;;;;;;;4968307;28;20759;-83
2022/10/01 13:01:48;;;;;;;9.23;2.30;;;;;;;;;;4949517;28;20047;-83
2022/10/01 13:05:11;;;;;;;6.55;1.40;;;;;;;;;;4949053;28;20069;-82
2022/10/01 13:08:05;;;;;;;5.97;1.05;;;;;;;;;;4951647;28;20042;-83
2022/10/01 13:10:40;;;;;;;5.45;1.70;;;;;;;;;;4968431;28;20058;-83
2022/10/01 13:13:24;;;;;;;8.95;1.60;;;;;;;;;;4951550;28;20423;-83
2022/10/01 13:16:06;;;;;;;6.32;1.52;;;;;;;;;;4964670;28;20137;-83
2022/10/01 13:18:36;;;;;;;5.70;1.30;;;;;;;;;;4965117;28;20141;-83
2022/10/01 13:21:31;;;;;;;5.53;1.60;;;;;;;;;;4966928;28;20046;-83
2022/10/01 13:24:09;;;;;;;4.00;1.55;;;;;;;;;;4935268;28;20051;-83
2022/10/01 13:26:49;;;;;;;6.88;1.52;;;;;;;;;;4950487;28;20051;-83
2022/10/01 13:29:46;;;;;;;4.35;0.82;;;;;;;;;;4966887;28;20058;-82
2022/10/01 13:32:56;;;;;;;5.13;0.90;;;;;;;;;;4958710;28;20053;-82
2022/10/01 13:35:56;;;;;;;1.92;0.82;;;;;;;;;;4994513;28;20045;-83
2022/10/01 13:38:37;;;;;;;2.40;0.70;;;;;;;;;;5044684;28;20056;-82
2022/10/01 13:41:32;;;;;;;3.25;0.75;;;;;;;;;;5045197;28;20481;-82
2022/10/01 13:44:07;;;;;;;4.57;1.00;;;;;;;;;;5043084;28;20123;-82
2022/10/01 13:46:57;;;;;;;4.95;0.95;;;;;;;;;;5046261;28;20075;-82
2022/10/01 13:49:30;;;;;;;3.50;1.15;;;;;;;;;;5027714;28;20041;-82
2022/10/01 13:51:58;;;;;;;4.57;1.10;;;;;;;;;;4997790;28;20044;-82
2022/10/01 13:54:46;;;;;;;5.45;1.17;;;;;;;;;;5012297;28;20585;-82
2022/10/01 13:57:33;;;;;;;4.78;1.30;;;;;;;;;;5028117;28;20095;-82
2022/10/01 14:00:11;;;;;;;5.90;1.17;;;;;;;;;;5049410;28;20032;-82
2022/10/01 14:03:16;;;;;;;6.65;1.35;;;;;;;;;;5033207;28;20045;-82
2022/10/01 14:05:45;;;;;;;3.85;0.80;;;;;;;;;;5044479;28;20454;-82
2022/10/01 14:08:27;;;;;;;3.17;0.70;;;;;;;;;;5048100;28;20041;-82
2022/10/01 14:16:55;;;;;;;5.15;0.90;;;;;;;;;;5049229;28;20500;-82
2022/10/01 14:19:24;;;;;;;4.63;0.98;;;;;;;;;;5031439;28;20127;-82
2022/10/01 14:22:31;;;;;;;3.47;0.80;;;;;;;;;;5032202;28;20388;-82
2022/10/01 14:25:31;;;;;;;4.03;1.85;;;;;;;;;;4970739;28;20061;-82
2022/10/01 14:28:54;;;;;;;5.13;1.85;;;;;;;;;;4963071;28;20467;-82
2022/10/01 14:31:34;;;;;;;11.18;2.20;;;;;;;;;;4985750;28;20080;-82
2022/10/01 14:34:42;;;;;;;3.72;1.70;;;;;;;;;;4986174;28;20050;-82
2022/10/01 14:37:16;;;;;;;5.43;1.48;;;;;;;;;;4988113;28;20042;-82
2022/10/01 14:39:47;;;;;;;7.70;2.35;;;;;;;;;;4971513;28;20058;-82
2022/10/01 14:42:17;;;;;;;5.05;0.98;;;;;;;;;;4989013;28;20042;-82
2022/10/01 14:44:49;;;;;;;5.38;0.90;;;;;;;;;;4987254;28;20050;-82
2022/10/01 14:47:39;;;;;;;4.15;1.20;;;;;;;;;;4971885;28;20035;-82
2022/10/01 14:50:34;;;;;;;5.25;1.20;;;;;;;;;;4970414;28;20046;-82
2022/10/01 14:53:16;;;;;;;5.90;1.25;;;;;;;;;;4988281;28;20050;-82
2022/10/01 14:55:53;;;;;;;2.35;1.00;;;;;;;;;;4988459;28;20046;-82
2022/10/01 14:58:42;;;;;;;5.05;1.30;;;;;;;;;;5000095;28;20056;-82
2022/10/01 15:01:18;;;;;;;1.75;1.00;;;;;;;;;;5050256;28;20041;-82
2022/10/01 15:04:19;;;;;;;3.97;1.40;;;;;;;;;;5019780;28;20471;-82
2022/10/01 15:06:50;;;;;;;7.20;1.40;;;;;;;;;;5031507;28;20582;-82
2022/10/01 15:09:40;;;;;;;3.20;1.25;;;;;;;;;;5047914;28;20037;-82
2022/10/01 15:12:08;;;;;;;4.40;1.15;;;;;;;;;;5014094;28;20062;-82
2022/10/01 15:14:42;;;;;;;5.32;1.27;;;;;;;;;;5016340;28;20044;-82
2022/10/01 15:17:22;;;;;;;3.15;0.90;;;;;;;;;;5031070;28;20059;-82
2022/10/01 15:19:57;;;;;;;3.08;1.00;;;;;;;;;;5029297;28;20069;-82
2022/10/01 15:22:28;;;;;;;4.97;1.42;;;;;;;;;;5032296;28;20406;-82
2022/10/01 15:25:01;;;;;;;3.47;1.20;;;;;;;;;;5031741;28;20532;-82
2022/10/01 15:27:28;;;;;;;5.60;1.45;;;;;;;;;;5046677;28;20155;-82
2022/10/01 15:29:57;;;;;;;5.95;1.30;;;;;;;;;;5030152;28;20045;-82
2022/10/01 15:32:27;;;;;;;5.90;1.20;;;;;;;;;;5048343;28;20091;-82
2022/10/01 15:34:56;;;;;;;3.58;1.13;;;;;;;;;;5048939;28;20072;-82
2022/10/01 15:38:16;;;;;;;5.50;1.02;;;;;;;;;;5029897;28;20036;-82
2022/10/01 15:40:50;;;;;;;2.65;1.00;;;;;;;;;;5044241;28;20149;-82
2022/10/01 15:43:26;;;;;;;3.53;1.20;;;;;;;;;;5048459;28;20047;-82
2022/10/01 15:46:14;;;;;;;6.47;1.30;;;;;;;;;;5046742;28;20037;-82
2022/10/01 15:48:43;;;;;;;3.08;1.40;;;;;;;;;;5030446;28;20037;-82
2022/10/01 15:51:21;;;;;;;7.13;1.38;;;;;;;;;;5038397;28;20037;-82
2022/10/01 15:53:48;;;;;;;6.63;1.58;;;;;;;;;;5025003;28;20045;-82
2022/10/01 15:56:20;;;;;;;4.80;1.17;;;;;;;;;;5028338;28;20060;-82
2022/10/01 15:58:58;;;;;;;4.90;1.15;;;;;;;;;;5024781;28;20051;-82
2022/10/01 16:01:36;;;;;;;3.45;0.90;;;;;;;;;;5024484;28;20132;-82
2022/10/01 16:04:10;;;;;;;3.03;1.05;;;;;;;;;;5045808;28;20250;-82
2022/10/01 16:06:37;;;;;;;3.92;1.23;;;;;;;;;;5030663;28;20596;-82
2022/10/01 16:09:17;;;;;;;4.50;1.30;;;;;;;;;;5047712;28;20052;-82
2022/10/01 16:12:04;;;;;;;3.80;1.15;;;;;;;;;;5046535;28;20029;-82
2022/10/01 16:14:54;;;;;;;6.45;1.58;;;;;;;;;;5013642;28;20041;-82
2022/10/01 16:17:32;;;;;;;3.95;1.17;;;;;;;;;;5048173;28;20079;-82
2022/10/01 16:20:15;;;;;;;10.95;1.45;;;;;;;;;;5046907;28;20064;-82
2022/10/01 16:22:42;;;;;;;3.53;1.20;;;;;;;;;;5047736;28;20029;-82
2022/10/01 16:25:16;;;;;;;7.72;1.73;;;;;;;;;;5045946;28;20052;-82